Salisbury, VT (05769)

2:16 AM EST on December 04, 2016 (GMT -0500)
Lake Dunmore Southwest shore | | Change Station

Elev 630 ft 43.89 °N, 73.08 °W | Updated 1 second ago

Overcast
Overcast
32.0 °F
Feels Like 29 °F
N
3.6
Wind Variable Wind from ENE
Gusts 4.9 mph

Today
High -- | Low -- °F
--% Chance of Precip.
Yesterday
High -- | Low -- °F
Precip. -- in
Pressure 30.14 in
Visibility 10.0 miles
Clouds Overcast 2700 ft
Windchill 29 °F
Dew Point 21 °F
Humidity 64%
Rainfall 0.00 in
Snow Depth Not available.
7:10 AM 4:15 PM
Waxing Crescent, 20% visible
METAR K6B0 040655Z AUTO 35006KT 10SM OVC027 00/M05 A3014 RMK AO2 T10011048
Pressure 30.14 in
Visibility 10.0 miles
Clouds Overcast 2700 ft
Windchill 29 °F
Dew Point 21 °F
Humidity 64%
Rainfall 0.00 in
Snow Depth Not available.
7:10 AM 4:15 PM
Waxing Crescent, 20% visible
METAR K6B0 040655Z AUTO 35006KT 10SM OVC027 00/M05 A3014 RMK AO2 T10011048

10-Day Weather Forecast

Almanac

Astronomy

Dec. 04, 2016 Rise Set
Actual Time
Civil Twilight
Nautical Twilight
Astronomical Twilight
Moon
Length of Visible Light
Length of Day
Tomorrow will be .
, % of the Moon is Illuminated

Today's Extremes

State Highs State Lows

Community

WunderPhotos

Upload Photos

1,955,587 photos uploaded!

WunderBlog® & News

Nearby

Air Quality

  Air Quality AQ Index Pollutant
Not available.

Snow Depth

Station Depth Elevation

Earthquake Activity

City Distance Mag. Time & Date
Minimum magnitude displayed is 2.5.

Coastal Water Temperatures

Place Temperature

Stations

Nearby Weather Stations

Station Location Temp. Windchill Dew Point Humidity Wind Precip. Elev Updated Type
                   

Watches & Warnings

There are currently no watches in effect.